Time;durP1;ratioP1;P1;durP2;ratioP2;P2;SDS_P1;SDS_P2;PMS_P1;PMS_P2;Temp;Humidity;BMP_temperature;BMP_pressure;BME280_temperature;BME280_humidity;BME280_pressure;Samples;Min_cycle;Max_cycle;Signal;HPM_P1;HPM_P2
2022/09/03 00:00:51;;;;;;;2.28;1.63;;;21.80;94.00;;;;;;10013515;28;20400;-66
2022/09/03 00:05:46;;;;;;;4.13;2.10;;;21.70;94.20;;;;;;10012944;28;20025;-64
2022/09/03 00:11:02;;;;;;;2.80;1.80;;;21.70;94.40;;;;;;10004839;28;20065;-64
2022/09/03 00:15:55;;;;;;;3.80;1.67;;;21.70;94.70;;;;;;10007527;28;20026;-64
2022/09/03 00:20:52;;;;;;;3.67;2.45;;;21.90;94.70;;;;;;10013103;28;20484;-63
2022/09/03 00:25:52;;;;;;;3.85;2.00;;;21.80;94.90;;;;;;10008803;28;20025;-65
2022/09/03 00:30:46;;;;;;;3.30;1.90;;;21.80;95.00;;;;;;10011296;28;20155;-64
2022/09/03 00:35:41;;;;;;;2.25;1.75;;;21.70;95.20;;;;;;9994678;28;20393;-64
2022/09/03 00:40:53;;;;;;;1.98;1.63;;;21.60;95.40;;;;;;10012465;28;20061;-64
2022/09/03 00:46:06;;;;;;;2.72;1.75;;;21.60;95.50;;;;;;10012442;28;20516;-64
2022/09/03 00:51:05;;;;;;;4.25;2.00;;;21.60;95.80;;;;;;10011326;28;20407;-64
2022/09/03 00:55:59;;;;;;;3.70;1.80;;;21.50;95.90;;;;;;10008471;28;20033;-64
2022/09/03 01:00:51;;;;;;;4.03;1.90;;;21.40;96.00;;;;;;10020827;28;20025;-65
2022/09/03 01:06:15;;;;;;;2.50;2.03;;;21.60;96.00;;;;;;10000026;28;20022;-65
2022/09/03 01:11:28;;;;;;;5.63;1.73;;;21.60;96.20;;;;;;10020132;28;20099;-65
2022/09/03 01:16:57;;;;;;;7.45;3.25;;;21.40;96.50;;;;;;10012570;28;20444;-65
2022/09/03 01:21:58;;;;;;;5.05;2.33;;;21.30;96.60;;;;;;10010638;28;20046;-65
2022/09/03 01:26:54;;;;;;;3.55;2.22;;;21.20;96.70;;;;;;10018887;28;20022;-65
2022/09/03 01:32:14;;;;;;;2.30;1.65;;;21.20;96.80;;;;;;10001314;28;20026;-65
2022/09/03 01:37:19;;;;;;;2.22;1.48;;;21.10;96.90;;;;;;10013533;28;20088;-65
2022/09/03 01:42:28;;;;;;;3.67;2.10;;;21.30;96.80;;;;;;10013652;28;20057;-65
2022/09/03 01:47:31;;;;;;;3.10;1.88;;;21.30;96.80;;;;;;10018201;28;20030;-64
2022/09/03 01:52:32;;;;;;;3.70;2.03;;;21.20;96.90;;;;;;10005380;28;20372;-64
2022/09/03 01:57:51;;;;;;;2.72;2.30;;;21.20;97.00;;;;;;10017502;28;20034;-65
2022/09/03 02:02:46;;;;;;;4.32;1.70;;;21.30;97.00;;;;;;10016934;28;20021;-65
2022/09/03 02:07:45;;;;;;;1.98;1.70;;;21.20;97.00;;;;;;10018575;28;20538;-65
2022/09/03 02:12:38;;;;;;;2.88;2.08;;;21.20;97.10;;;;;;10018104;28;20030;-65
2022/09/03 02:17:31;;;;;;;2.22;1.58;;;21.00;97.20;;;;;;10004610;28;20121;-64
2022/09/03 02:22:21;;;;;;;3.40;1.63;;;21.00;97.30;;;;;;10017733;28;20167;-65
2022/09/03 02:27:12;;;;;;;3.25;2.55;;;21.00;97.30;;;;;;10017235;28;20148;-64
2022/09/03 02:32:03;;;;;;;3.30;2.15;;;20.90;97.60;;;;;;10014739;28;20021;-64
2022/09/03 02:36:54;;;;;;;6.13;1.77;;;20.80;97.50;;;;;;10017281;28;20040;-64
2022/09/03 02:41:56;;;;;;;2.78;1.65;;;20.70;97.60;;;;;;10017787;28;20121;-65
2022/09/03 02:46:52;;;;;;;3.50;1.75;;;20.70;97.50;;;;;;10017078;28;20117;-65
2022/09/03 02:51:43;;;;;;;2.72;1.67;;;20.80;97.60;;;;;;10005483;28;20400;-65
2022/09/03 02:56:34;;;;;;;3.70;2.05;;;20.80;97.50;;;;;;10016484;28;20098;-65
2022/09/03 03:01:25;;;;;;;3.33;2.05;;;20.70;97.70;;;;;;10016909;28;20030;-65
2022/09/03 03:06:19;;;;;;;2.90;2.03;;;20.60;97.80;;;;;;10012056;28;20030;-65
2022/09/03 03:11:10;;;;;;;3.58;1.65;;;20.70;97.80;;;;;;10015047;28;20030;-64
2022/09/03 03:16:05;;;;;;;4.82;2.83;;;20.80;97.80;;;;;;10006615;28;20708;-65
2022/09/03 03:20:55;;;;;;;2.55;2.15;;;20.80;97.90;;;;;;10003481;28;20021;-64
2022/09/03 03:25:46;;;;;;;11.35;3.10;;;20.80;97.80;;;;;;10015829;28;20067;-65
2022/09/03 03:30:38;;;;;;;2.85;1.85;;;20.90;97.70;;;;;;10014442;28;20030;-64
2022/09/03 03:35:29;;;;;;;2.42;1.48;;;20.80;97.80;;;;;;10014206;28;20265;-64
2022/09/03 03:40:20;;;;;;;3.42;1.90;;;20.70;98.00;;;;;;10014091;28;20038;-64
2022/09/03 03:45:10;;;;;;;4.60;1.95;;;20.70;97.90;;;;;;9989700;28;20025;-64
2022/09/03 03:50:01;;;;;;;3.03;1.73;;;20.50;98.10;;;;;;10014129;28;20029;-65
2022/09/03 03:54:53;;;;;;;4.03;1.50;;;20.50;98.10;;;;;;9999485;28;20026;-64
2022/09/03 03:59:44;;;;;;;2.60;1.60;;;20.50;98.10;;;;;;9995398;28;20650;-64
2022/09/03 04:04:35;;;;;;;4.03;2.13;;;20.50;98.10;;;;;;10013040;28;20034;-64
2022/09/03 04:09:25;;;;;;;3.95;1.80;;;20.30;98.40;;;;;;10007858;28;20162;-64
2022/09/03 04:14:19;;;;;;;3.33;2.35;;;20.30;98.60;;;;;;10007552;28;20278;-64
2022/09/03 04:19:10;;;;;;;3.13;2.22;;;20.20;98.70;;;;;;10013499;28;20038;-64
2022/09/03 04:24:02;;;;;;;4.68;2.15;;;20.20;98.70;;;;;;10002847;28;20034;-64
2022/09/03 04:28:53;;;;;;;5.03;2.05;;;20.30;98.80;;;;;;10010524;28;20026;-65
2022/09/03 04:33:44;;;;;;;7.30;2.70;;;20.30;98.70;;;;;;10012206;28;20412;-64
2022/09/03 04:38:37;;;;;;;4.78;2.30;;;20.30;98.90;;;;;;10008727;28;20050;-64
2022/09/03 04:43:28;;;;;;;3.92;2.55;;;20.30;99.10;;;;;;10012448;28;20018;-64
2022/09/03 04:48:18;;;;;;;4.13;2.08;;;20.30;99.20;;;;;;10012413;28;20077;-64
2022/09/03 04:53:09;;;;;;;4.53;2.70;;;20.30;99.30;;;;;;10005864;28;20053;-64
2022/09/03 04:58:00;;;;;;;3.90;2.15;;;20.30;99.50;;;;;;9994788;28;20036;-63
2022/09/03 05:02:51;;;;;;;3.20;2.25;;;20.20;99.70;;;;;;10013199;28;20041;-63
2022/09/03 05:07:42;;;;;;;3.75;2.63;;;20.20;99.80;;;;;;10008103;28;20060;-64
2022/09/03 05:12:32;;;;;;;2.97;2.40;;;20.10;99.80;;;;;;10011423;28;20105;-65
2022/09/03 05:17:23;;;;;;;4.40;2.42;;;20.20;99.90;;;;;;10008703;28;20467;-64
2022/09/03 05:22:20;;;;;;;3.08;2.20;;;20.10;99.90;;;;;;10010024;28;20033;-64
2022/09/03 05:27:10;;;;;;;3.30;2.13;;;20.20;99.90;;;;;;10011764;28;20048;-65
2022/09/03 05:32:02;;;;;;;3.10;2.03;;;20.30;99.90;;;;;;10011745;28;20030;-65
2022/09/03 05:36:54;;;;;;;3.17;2.13;;;20.30;99.90;;;;;;10011139;28;20030;-64
2022/09/03 05:41:44;;;;;;;4.13;2.28;;;20.20;99.90;;;;;;10018752;28;20226;-65
2022/09/03 05:46:36;;;;;;;3.47;2.40;;;20.20;99.90;;;;;;10012006;28;20293;-64
2022/09/03 05:51:27;;;;;;;7.07;3.00;;;20.00;99.90;;;;;;9999637;28;20038;-65
2022/09/03 05:56:20;;;;;;;4.30;2.08;;;20.00;99.90;;;;;;10017458;28;20044;-64
2022/09/03 06:01:13;;;;;;;2.92;2.38;;;20.20;99.90;;;;;;10018022;28;20029;-64
2022/09/03 06:06:04;;;;;;;3.63;2.72;;;20.40;99.90;;;;;;10005893;28;20251;-65
2022/09/03 06:10:59;;;;;;;4.13;2.67;;;20.50;99.90;;;;;;10015632;28;20095;-67
2022/09/03 06:15:49;;;;;;;3.28;2.25;;;20.30;99.90;;;;;;10011174;28;20034;-65
2022/09/03 06:20:40;;;;;;;2.38;2.00;;;20.30;99.90;;;;;;10010360;28;20030;-65
2022/09/03 06:25:30;;;;;;;4.03;2.40;;;20.30;99.90;;;;;;10017864;28;20051;-65
2022/09/03 06:30:22;;;;;;;3.53;2.35;;;20.60;99.90;;;;;;10016115;28;20034;-65
2022/09/03 06:35:13;;;;;;;4.18;2.63;;;20.70;99.90;;;;;;10000233;28;20105;-66
2022/09/03 06:40:04;;;;;;;6.90;2.60;;;20.90;99.90;;;;;;10017477;28;20129;-65
2022/09/03 06:44:56;;;;;;;2.53;1.77;;;20.80;99.90;;;;;;10012255;28;20030;-66
2022/09/03 06:49:46;;;;;;;3.67;2.25;;;20.80;99.90;;;;;;10017111;28;20037;-65
2022/09/03 06:54:39;;;;;;;4.82;2.63;;;21.00;99.90;;;;;;10004977;28;20400;-65
2022/09/03 06:59:30;;;;;;;5.18;2.58;;;21.30;99.90;;;;;;10016485;28;20228;-66
2022/09/03 07:04:23;;;;;;;2.45;2.00;;;21.10;99.90;;;;;;10014350;28;20109;-64
2022/09/03 07:09:16;;;;;;;3.03;2.10;;;21.20;99.90;;;;;;10016598;28;20041;-65
2022/09/03 07:14:07;;;;;;;2.95;2.17;;;21.10;99.90;;;;;;10009194;28;20033;-65
2022/09/03 07:18:59;;;;;;;2.97;2.17;;;21.40;99.90;;;;;;10015934;28;20049;-66
2022/09/03 07:23:52;;;;;;;2.70;2.05;;;21.70;99.90;;;;;;10016150;28;20480;-64
2022/09/03 07:28:44;;;;;;;4.20;2.20;;;22.10;99.90;;;;;;10013864;28;20133;-65
2022/09/03 07:33:35;;;;;;;4.63;2.58;;;22.20;99.90;;;;;;10015270;28;20108;-65
2022/09/03 07:38:26;;;;;;;3.45;2.75;;;22.30;99.90;;;;;;10014843;28;20619;-65
2022/09/03 07:43:19;;;;;;;4.13;2.67;;;22.50;99.90;;;;;;10014108;28;20037;-64
2022/09/03 07:48:09;;;;;;;3.70;2.58;;;22.30;99.90;;;;;;10015265;28;20475;-64
2022/09/03 07:53:00;;;;;;;5.32;3.03;;;21.80;99.90;;;;;;10002285;28;20340;-65
2022/09/03 07:57:58;;;;;;;5.82;2.90;;;21.60;99.90;;;;;;10004025;28;20578;-65
2022/09/03 08:02:50;;;;;;;4.88;2.75;;;21.20;99.90;;;;;;10012603;28;20026;-65
2022/09/03 08:07:41;;;;;;;4.13;2.63;;;21.20;99.90;;;;;;10014139;28;20484;-65
2022/09/03 08:12:32;;;;;;;3.72;2.88;;;21.40;99.90;;;;;;10011198;28;20037;-65
2022/09/03 08:17:22;;;;;;;5.10;2.65;;;21.30;99.90;;;;;;10010065;28;20037;-65
2022/09/03 08:22:13;;;;;;;8.52;3.97;;;21.40;99.90;;;;;;9992048;28;20267;-65
2022/09/03 08:27:04;;;;;;;9.18;3.60;;;21.80;99.90;;;;;;10009980;28;20037;-64
2022/09/03 08:31:55;;;;;;;4.75;3.58;;;22.30;99.90;;;;;;9995254;28;20021;-64
2022/09/03 08:36:46;;;;;;;4.63;2.50;;;22.90;99.90;;;;;;10009902;28;20034;-65
2022/09/03 08:41:45;;;;;;;2.88;2.45;;;23.30;99.90;;;;;;10013137;28;20060;-65
2022/09/03 08:47:00;;;;;;;5.93;2.28;;;23.30;99.90;;;;;;10012879;28;20535;-64
2022/09/03 08:51:53;;;;;;;2.72;2.50;;;23.10;99.90;;;;;;9990715;28;20088;-65
2022/09/03 08:56:46;;;;;;;3.42;2.28;;;22.60;99.90;;;;;;10012822;28;20381;-66
2022/09/03 09:01:48;;;;;;;4.40;2.28;;;22.10;99.90;;;;;;10013896;28;20038;-64
2022/09/03 09:06:43;;;;;;;3.25;2.20;;;21.90;99.90;;;;;;10003677;28;20514;-66
2022/09/03 09:11:40;;;;;;;3.17;2.20;;;21.70;99.90;;;;;;10015558;28;20587;-65
2022/09/03 09:16:49;;;;;;;4.95;2.72;;;21.70;99.90;;;;;;10018672;28;20482;-65
2022/09/03 09:21:48;;;;;;;3.05;2.33;;;21.90;99.90;;;;;;10011224;28;20393;-65
2022/09/03 09:26:40;;;;;;;4.78;2.65;;;22.10;99.90;;;;;;10020427;28;20026;-65
2022/09/03 09:31:31;;;;;;;5.30;2.53;;;22.50;99.90;;;;;;10019950;28;20524;-66
2022/09/03 09:36:22;;;;;;;4.03;2.47;;;22.70;99.90;;;;;;10017787;28;20046;-65
2022/09/03 09:41:15;;;;;;;5.75;2.55;;;22.80;99.90;;;;;;10019944;28;20707;-65
2022/09/03 09:46:14;;;;;;;3.47;2.30;;;22.90;99.90;;;;;;10018584;28;20530;-65
2022/09/03 09:51:05;;;;;;;5.97;3.58;;;23.00;99.90;;;;;;10009466;28;20026;-67
2022/09/03 09:55:57;;;;;;;3.53;2.65;;;23.00;99.90;;;;;;10014778;28;20116;-67
2022/09/03 10:00:56;;;;;;;2.95;2.42;;;23.00;99.90;;;;;;10015221;28;20029;-65
2022/09/03 10:06:01;;;;;;;4.72;3.00;;;23.20;99.90;;;;;;10013357;28;20021;-66
2022/09/03 10:10:51;;;;;;;3.08;2.38;;;23.40;99.80;;;;;;10018896;28;20077;-68
2022/09/03 10:15:57;;;;;;;3.72;2.60;;;23.30;99.90;;;;;;10008029;28;20029;-65
2022/09/03 10:21:03;;;;;;;3.05;2.38;;;23.20;99.90;;;;;;10015651;28;20025;-63
2022/09/03 10:26:06;;;;;;;5.15;2.45;;;23.10;99.90;;;;;;10003019;28;20025;-61
2022/09/03 10:31:16;;;;;;;4.35;2.90;;;22.90;99.90;;;;;;10013474;28;20092;-64
2022/09/03 10:36:14;;;;;;;3.47;2.78;;;22.90;99.90;;;;;;10007651;28;20419;-64
2022/09/03 10:41:27;;;;;;;5.10;3.40;;;23.10;99.90;;;;;;10016680;28;20543;-63
2022/09/03 10:46:25;;;;;;;3.70;2.63;;;23.20;99.90;;;;;;10013501;28;20500;-65
2022/09/03 10:51:22;;;;;;;6.30;3.90;;;23.10;99.90;;;;;;10008101;28;20069;-64
2022/09/03 10:56:23;;;;;;;3.88;2.50;;;23.00;99.90;;;;;;10015367;28;20053;-65
2022/09/03 11:01:51;;;;;;;5.80;3.22;;;22.90;99.90;;;;;;10016925;28;20107;-64
2022/09/03 11:06:53;;;;;;;3.90;2.60;;;23.40;99.90;;;;;;10009058;28;20030;-65
2022/09/03 11:11:54;;;;;;;3.40;3.10;;;24.10;99.90;;;;;;10000967;28;20037;-66
2022/09/03 11:16:54;;;;;;;4.10;2.38;;;24.30;99.90;;;;;;9989521;28;20049;-65
2022/09/03 11:21:47;;;;;;;4.70;2.90;;;24.80;99.70;;;;;;10012558;28;20026;-65
2022/09/03 11:26:59;;;;;;;3.13;2.60;;;25.30;99.30;;;;;;9992483;28;20038;-65
2022/09/03 11:31:58;;;;;;;2.78;2.45;;;25.50;99.10;;;;;;9984137;28;20231;-64
2022/09/03 11:36:49;;;;;;;2.33;2.10;;;25.20;98.90;;;;;;10015159;28;20037;-64
2022/09/03 11:41:56;;;;;;;4.68;2.33;;;24.80;99.20;;;;;;10015563;28;20492;-67
2022/09/03 11:46:56;;;;;;;3.83;1.60;;;24.50;99.30;;;;;;9991558;28;20029;-64
2022/09/03 11:52:03;;;;;;;5.10;1.90;;;24.80;98.40;;;;;;9975897;28;20083;-62
2022/09/03 11:57:09;;;;;;;1.02;0.88;;;25.40;97.60;;;;;;9996830;28;20079;-62
2022/09/03 12:02:21;;;;;;;2.47;0.88;;;25.30;97.30;;;;;;10009081;28;20057;-71
2022/09/03 12:07:35;;;;;;;2.38;1.05;;;25.10;97.20;;;;;;10016161;28;20025;-65
2022/09/03 12:12:38;;;;;;;1.65;0.68;;;25.20;97.10;;;;;;10008085;28;20121;-66
2022/09/03 12:17:41;;;;;;;2.90;0.60;;;25.10;96.80;;;;;;10012095;28;20125;-65
2022/09/03 12:22:37;;;;;;;0.98;0.60;;;25.00;96.40;;;;;;10015101;28;20041;-65
2022/09/03 12:27:32;;;;;;;1.77;0.60;;;24.60;96.50;;;;;;10006804;28;20158;-68
2022/09/03 12:32:23;;;;;;;0.38;0.38;;;24.10;96.40;;;;;;10015803;28;20022;-62
2022/09/03 12:37:23;;;;;;;1.60;0.40;;;23.60;96.50;;;;;;10014783;28;20034;-63
2022/09/03 12:42:23;;;;;;;0.88;0.50;;;23.50;96.20;;;;;;10009098;28;20041;-63
2022/09/03 12:47:19;;;;;;;0.60;0.50;;;23.40;96.10;;;;;;10001311;28;20030;-66
2022/09/03 12:52:33;;;;;;;0.60;0.35;;;23.10;96.50;;;;;;10010385;28;20152;-67
2022/09/03 12:57:36;;;;;;;0.82;0.68;;;23.00;96.20;;;;;;10012437;28;20413;-65
2022/09/03 13:02:50;;;;;;;0.80;0.60;;;23.00;96.20;;;;;;10013228;28;20030;-66
2022/09/03 13:07:50;;;;;;;0.73;0.57;;;22.90;96.30;;;;;;10001217;28;20110;-68
2022/09/03 13:12:48;;;;;;;1.15;0.98;;;22.80;96.60;;;;;;10010215;28;20061;-70
2022/09/03 13:17:51;;;;;;;1.13;0.70;;;22.80;96.70;;;;;;10010817;28;20030;-68
2022/09/03 13:22:55;;;;;;;1.15;0.70;;;22.80;96.90;;;;;;9995726;28;20037;-68
2022/09/03 13:28:06;;;;;;;1.58;0.70;;;23.10;96.90;;;;;;10005115;28;20025;-70
2022/09/03 13:33:36;;;;;;;1.27;0.50;;;23.30;96.80;;;;;;9977516;28;20041;-66
2022/09/03 13:38:40;;;;;;;0.73;0.60;;;23.30;97.20;;;;;;10006422;28;20050;-70
2022/09/03 13:43:55;;;;;;;1.92;0.80;;;22.90;97.60;;;;;;10013208;28;20080;-66
2022/09/03 13:54:11;;;;;;;1.65;0.80;;;22.60;98.00;;;;;;9995467;28;20052;-73
2022/09/03 13:59:17;;;;;;;1.02;0.82;;;22.50;98.20;;;;;;10011136;28;20096;-73
2022/09/03 14:04:20;;;;;;;3.25;0.82;;;22.40;98.50;;;;;;10013123;28;20088;-70
2022/09/03 14:09:32;;;;;;;1.98;1.58;;;22.40;98.70;;;;;;10019391;28;20030;-66
2022/09/03 14:14:49;;;;;;;1.58;0.80;;;22.90;98.50;;;;;;10015582;28;20064;-71
2022/09/03 14:19:44;;;;;;;2.05;0.95;;;25.00;98.10;;;;;;9987940;28;20034;-72
2022/09/03 14:24:49;;;;;;;1.63;0.90;;;25.60;97.50;;;;;;10018569;28;20382;-69
2022/09/03 14:29:52;;;;;;;2.00;1.15;;;25.20;97.70;;;;;;10005715;28;20040;-68
2022/09/03 14:35:13;;;;;;;1.85;0.85;;;25.10;98.00;;;;;;10020854;28;20050;-66
2022/09/03 14:40:29;;;;;;;2.53;1.00;;;25.30;97.80;;;;;;10019608;28;20508;-66
2022/09/03 14:45:29;;;;;;;1.55;1.00;;;25.70;97.50;;;;;;10020004;28;20030;-68
2022/09/03 14:50:50;;;;;;;1.00;0.80;;;25.90;97.40;;;;;;10010972;28;20032;-68
2022/09/03 14:56:18;;;;;;;1.30;0.60;;;25.70;97.30;;;;;;10007821;28;20050;-68
2022/09/03 15:01:17;;;;;;;2.22;0.80;;;26.30;96.90;;;;;;9995971;28;20054;-68
2022/09/03 15:06:36;;;;;;;3.70;0.70;;;25.90;96.90;;;;;;9998950;28;20046;-71
2022/09/03 15:11:31;;;;;;;1.90;1.00;;;26.20;96.80;;;;;;10008696;28;20705;-64
2022/09/03 15:16:42;;;;;;;1.05;0.85;;;27.50;95.70;;;;;;10012196;28;20069;-65
2022/09/03 15:21:42;;;;;;;1.10;0.73;;;27.00;95.90;;;;;;10015255;28;20320;-66
2022/09/03 15:26:58;;;;;;;1.20;0.90;;;28.00;95.30;;;;;;10014241;28;20382;-66
2022/09/03 15:31:55;;;;;;;1.27;0.90;;;31.80;93.30;;;;;;10010785;28;20063;-64
2022/09/03 15:36:49;;;;;;;1.33;1.10;;;34.20;91.50;;;;;;10013924;28;20080;-64
2022/09/03 15:41:49;;;;;;;2.45;0.80;;;35.20;88.40;;;;;;10011626;28;20243;-64
2022/09/03 15:47:04;;;;;;;0.95;0.77;;;33.80;89.90;;;;;;10012693;28;20092;-65
2022/09/03 15:52:14;;;;;;;0.52;0.50;;;29.40;91.90;;;;;;9974700;28;20407;-64
2022/09/03 15:57:16;;;;;;;1.60;1.00;;;27.30;93.40;;;;;;9993641;28;20042;-64
2022/09/03 16:02:13;;;;;;;1.08;0.90;;;26.30;94.00;;;;;;9993320;28;20030;-64
2022/09/03 16:07:13;;;;;;;1.38;1.15;;;25.80;94.10;;;;;;10011344;28;20026;-64
2022/09/03 16:12:17;;;;;;;2.15;0.90;;;25.60;94.20;;;;;;10012258;28;20026;-63
2022/09/03 16:17:15;;;;;;;;;;;27.30;93.60;;;;;;10011824;28;20030;-64
2022/09/03 16:22:30;;;;;;;2.22;1.30;;;31.80;90.30;;;;;;10012973;28;20421;-62
2022/09/03 16:27:37;;;;;;;3.10;1.33;;;34.20;84.60;;;;;;10007607;28;20025;-63
2022/09/03 16:32:46;;;;;;;3.97;1.20;;;36.00;79.70;;;;;;10013278;28;20263;-62
2022/09/03 16:37:47;;;;;;;1.98;1.10;;;31.50;85.30;;;;;;10012607;28;20046;-63
2022/09/03 16:42:56;;;;;;;1.50;0.80;;;29.40;89.40;;;;;;10011178;28;20551;-63
2022/09/03 16:48:25;;;;;;;3.03;1.48;;;28.30;90.40;;;;;;10013402;28;20033;-65
2022/09/03 16:53:36;;;;;;;1.50;1.08;;;33.30;82.60;;;;;;9999331;28;20026;-64
2022/09/03 16:59:09;;;;;;;1.38;1.00;;;35.60;76.50;;;;;;10002215;28;20060;-62
2022/09/03 17:04:30;;;;;;;2.10;1.60;;;34.90;75.10;;;;;;9907925;28;20045;-62
2022/09/03 17:09:54;;;;;;;2.17;1.27;;;31.30;80.70;;;;;;9990755;28;20433;-62
2022/09/03 17:15:10;;;;;;;1.73;1.20;;;29.90;83.10;;;;;;10006943;28;20447;-62
2022/09/03 17:20:07;;;;;;;2.53;1.15;;;27.80;87.80;;;;;;10010787;28;20026;-61
2022/09/03 17:25:05;;;;;;;2.22;1.30;;;26.70;90.10;;;;;;10006219;28;20033;-61
2022/09/03 17:30:29;;;;;;;10.95;5.35;;;26.20;90.40;;;;;;9995497;28;20065;-61
2022/09/03 17:35:33;;;;;;;3.38;2.20;;;25.70;90.80;;;;;;10011966;28;20042;-62
2022/09/03 17:40:40;;;;;;;2.40;1.60;;;25.50;91.10;;;;;;10020465;28;20053;-61
2022/09/03 17:45:46;;;;;;;4.82;1.70;;;25.30;91.30;;;;;;10014322;28;20037;-62
2022/09/03 17:50:59;;;;;;;3.72;1.77;;;25.00;91.70;;;;;;10013542;28;20555;-62
2022/09/03 17:56:21;;;;;;;3.92;1.85;;;24.80;91.90;;;;;;10014167;28;20036;-61
2022/09/03 18:01:19;;;;;;;5.22;1.95;;;24.70;92.10;;;;;;10011186;28;20042;-61
2022/09/03 18:06:41;;;;;;;5.57;3.00;;;24.60;92.30;;;;;;10009676;28;20032;-62
2022/09/03 18:11:45;;;;;;;4.72;2.33;;;24.50;92.50;;;;;;9999231;28;20197;-62
2022/09/03 18:17:10;;;;;;;3.90;2.20;;;24.40;92.60;;;;;;9996759;28;20029;-62
2022/09/03 20:15:24;;;;;;;6.43;3.90;;;23.50;96.10;;;;;;10010240;28;20041;-59
2022/09/03 20:20:20;;;;;;;8.02;3.80;;;23.60;96.30;;;;;;10013601;28;20025;-61
2022/09/03 20:25:16;;;;;;;9.93;4.25;;;23.60;96.40;;;;;;10012860;28;20512;-60
2022/09/03 20:30:13;;;;;;;10.40;4.30;;;23.40;96.50;;;;;;10013660;28;20034;-61
2022/09/03 20:35:27;;;;;;;7.68;4.75;;;23.40;96.70;;;;;;10012598;28;20018;-60
2022/09/03 20:40:55;;;;;;;8.60;4.07;;;23.30;96.80;;;;;;10007792;28;20408;-59
2022/09/03 20:46:26;;;;;;;7.07;4.25;;;23.30;97.00;;;;;;10008676;28;20029;-59
2022/09/03 20:51:22;;;;;;;12.48;5.50;;;23.30;97.00;;;;;;9966336;28;20045;-61
2022/09/03 20:56:36;;;;;;;6.45;5.30;;;23.20;97.10;;;;;;9994813;28;20037;-60
2022/09/03 21:02:10;;;;;;;9.32;4.20;;;23.20;97.30;;;;;;10012048;28;20172;-59
2022/09/03 21:07:25;;;;;;;6.50;4.38;;;23.10;97.50;;;;;;10001810;28;20033;-60
2022/09/03 21:12:41;;;;;;;8.45;4.50;;;23.10;97.70;;;;;;10019766;28;20025;-59
2022/09/03 21:17:44;;;;;;;5.95;4.00;;;23.10;97.50;;;;;;10002274;28;20034;-59
2022/09/03 21:22:44;;;;;;;7.13;4.18;;;23.10;97.70;;;;;;10016879;28;20026;-60
2022/09/03 21:27:58;;;;;;;5.22;3.45;;;23.00;97.90;;;;;;10008511;28;20037;-60
2022/09/03 21:33:00;;;;;;;4.65;2.78;;;22.80;98.30;;;;;;10011501;28;20349;-59
2022/09/03 21:38:19;;;;;;;3.95;2.33;;;22.60;98.50;;;;;;10012814;28;20411;-60
2022/09/03 21:43:29;;;;;;;5.45;3.08;;;22.40;98.90;;;;;;10009919;28;20289;-60
2022/09/03 21:48:25;;;;;;;4.53;2.63;;;22.20;99.20;;;;;;10010074;28;20042;-59
2022/09/03 21:53:42;;;;;;;4.28;2.67;;;22.10;99.40;;;;;;10006748;28;20658;-60
2022/09/03 21:58:49;;;;;;;6.00;2.50;;;22.00;99.60;;;;;;10008570;28;20030;-60
2022/09/03 22:03:41;;;;;;;4.03;2.63;;;22.10;99.70;;;;;;10015274;28;20130;-60
2022/09/03 22:08:47;;;;;;;4.75;2.42;;;22.10;99.70;;;;;;10001601;28;20064;-60
2022/09/03 22:13:48;;;;;;;4.25;2.45;;;22.10;99.90;;;;;;10012487;28;20033;-59
2022/09/03 22:18:39;;;;;;;3.83;2.53;;;22.10;99.90;;;;;;10015198;28;20713;-60
2022/09/03 22:23:42;;;;;;;3.60;2.78;;;22.10;99.90;;;;;;10016866;28;20101;-60
2022/09/03 22:28:48;;;;;;;6.13;2.85;;;21.90;99.90;;;;;;10017922;28;20519;-59
2022/09/03 22:33:42;;;;;;;5.10;2.63;;;21.90;99.90;;;;;;9996536;28;20185;-59
2022/09/03 22:38:39;;;;;;;5.17;2.60;;;21.80;99.90;;;;;;10017445;28;20049;-60
2022/09/03 22:43:57;;;;;;;4.35;2.22;;;21.90;99.90;;;;;;10014956;28;20030;-61
2022/09/03 22:49:08;;;;;;;3.00;2.15;;;21.80;99.90;;;;;;10009989;28;20056;-60
2022/09/03 22:54:15;;;;;;;4.38;2.63;;;21.60;99.90;;;;;;9998408;28;20014;-61
2022/09/03 22:59:24;;;;;;;4.47;2.50;;;21.60;99.90;;;;;;10016575;28;20038;-60
2022/09/03 23:04:33;;;;;;;7.15;4.13;;;21.60;99.90;;;;;;10002702;28;20038;-59
2022/09/03 23:09:33;;;;;;;2.90;2.30;;;21.70;99.90;;;;;;10011470;28;20032;-60
2022/09/03 23:14:28;;;;;;;3.53;2.15;;;21.60;99.90;;;;;;9998360;28;20088;-59
2022/09/03 23:19:39;;;;;;;5.63;2.47;;;21.50;99.90;;;;;;10004718;28;20432;-60
2022/09/03 23:24:58;;;;;;;4.70;2.67;;;21.60;99.90;;;;;;10015660;28;20342;-60
2022/09/03 23:29:55;;;;;;;3.13;2.70;;;21.50;99.90;;;;;;10008685;28;20042;-61
2022/09/03 23:34:46;;;;;;;3.55;2.20;;;21.40;99.90;;;;;;10015218;28;20101;-59
2022/09/03 23:39:48;;;;;;;4.28;2.38;;;21.40;99.90;;;;;;10015346;28;20533;-60
2022/09/03 23:45:03;;;;;;;4.65;3.00;;;21.30;99.90;;;;;;10015477;28;20094;-62
2022/09/03 23:50:10;;;;;;;3.67;2.78;;;21.20;99.90;;;;;;10013921;28;20018;-60
2022/09/03 23:55:27;;;;;;;8.73;2.97;;;21.20;99.90;;;;;;9991679;28;20505;-59
